createdAt,value
2022-08-26T00:02:12.510Z,0.38
2022-08-26T00:04:39.166Z,0.30
2022-08-26T00:07:05.610Z,0.40
2022-08-26T00:09:32.915Z,0.30
2022-08-26T00:12:04.022Z,0.30
2022-08-26T00:14:31.658Z,0.20
2022-08-26T00:16:58.886Z,0.20
2022-08-26T00:19:25.970Z,0.22
2022-08-26T00:21:52.326Z,0.28
2022-08-26T00:24:20.866Z,0.10
2022-08-26T00:26:47.988Z,0.10
2022-08-26T00:29:14.865Z,0.32
2022-08-26T00:31:41.898Z,0.65
2022-08-26T00:34:09.313Z,0.30
2022-08-26T00:36:36.068Z,0.20
2022-08-26T00:39:02.447Z,1.42
2022-08-26T00:41:28.809Z,0.20
2022-08-26T00:43:55.133Z,0.22
2022-08-26T00:46:23.588Z,0.20
2022-08-26T00:48:52.201Z,0.20
2022-08-26T00:51:20.418Z,0.25
2022-08-26T00:53:59.085Z,0.20
2022-08-26T00:56:32.234Z,0.13
2022-08-26T00:59:00.880Z,0.22
2022-08-26T01:01:28.290Z,0.20
2022-08-26T01:03:57.571Z,0.20
2022-08-26T01:06:24.873Z,0.20
2022-08-26T01:08:52.544Z,0.20
2022-08-26T01:11:19.535Z,0.10
2022-08-26T01:13:47.567Z,0.10
2022-08-26T01:16:15.600Z,0.17
2022-08-26T01:18:43.236Z,0.22
2022-08-26T01:21:15.797Z,0.20
2022-08-26T01:23:46.198Z,0.10
2022-08-26T01:26:19.525Z,0.15
2022-08-26T01:28:50.699Z,0.10
2022-08-26T01:31:18.981Z,0.30
2022-08-26T01:33:50.371Z,0.40
2022-08-26T01:36:17.021Z,0.30
2022-08-26T01:38:44.293Z,0.17
2022-08-26T01:41:19.554Z,0.20
2022-08-26T01:43:48.462Z,0.10
2022-08-26T01:46:16.084Z,0.30
2022-08-26T01:48:43.590Z,0.20
2022-08-26T01:51:10.612Z,0.38
2022-08-26T01:53:37.737Z,0.63
2022-08-26T01:56:05.134Z,0.35
2022-08-26T01:58:34.675Z,0.30
2022-08-26T02:01:01.275Z,0.40
2022-08-26T02:03:29.681Z,0.20
2022-08-26T02:05:57.666Z,0.20
2022-08-26T02:08:26.880Z,0.20
2022-08-26T02:10:55.063Z,0.22
2022-08-26T02:13:21.610Z,0.50
2022-08-26T02:15:49.243Z,0.22
2022-08-26T02:18:16.058Z,0.40
2022-08-26T02:20:42.727Z,0.47
2022-08-26T02:23:09.569Z,0.60
2022-08-26T02:25:47.046Z,0.70
2022-08-26T02:28:13.634Z,0.95
2022-08-26T02:30:40.478Z,0.70
2022-08-26T02:33:07.113Z,0.77
2022-08-26T02:35:35.488Z,1.00
2022-08-26T02:38:02.531Z,0.98
2022-08-26T02:40:39.265Z,1.00
2022-08-26T02:43:08.534Z,0.93
2022-08-26T02:45:35.668Z,1.20
2022-08-26T02:48:05.805Z,1.95
2022-08-26T02:50:32.255Z,1.80
2022-08-26T02:52:58.616Z,1.80
2022-08-26T02:55:25.539Z,2.20
2022-08-26T02:57:52.386Z,2.53
2022-08-26T03:00:18.816Z,4.28
2022-08-26T03:02:45.724Z,2.70
2022-08-26T03:05:12.957Z,3.67
2022-08-26T03:07:39.296Z,2.70
2022-08-26T03:10:08.508Z,3.03
2022-08-26T03:12:35.700Z,3.15
2022-08-26T03:15:02.206Z,3.75
2022-08-26T03:17:43.459Z,3.28
2022-08-26T03:20:10.222Z,4.28
2022-08-26T03:22:37.181Z,4.68
2022-08-26T03:25:04.766Z,4.18
2022-08-26T03:27:31.195Z,4.68
2022-08-26T03:30:18.012Z,3.65
2022-08-26T03:32:44.521Z,4.03
2022-08-26T03:35:11.484Z,3.00
2022-08-26T03:37:38.270Z,5.50
2022-08-26T03:40:06.313Z,5.65
2022-08-26T03:42:32.654Z,5.47
2022-08-26T03:44:58.994Z,6.45
2022-08-26T03:47:25.320Z,5.75
2022-08-26T03:49:51.936Z,7.07
2022-08-26T03:52:18.389Z,4.88
2022-08-26T03:54:44.811Z,6.07
2022-08-26T03:57:13.543Z,6.55
2022-08-26T03:59:43.258Z,6.28
2022-08-26T04:02:11.570Z,9.32
2022-08-26T04:04:38.392Z,4.57
2022-08-26T04:07:05.126Z,4.90
2022-08-26T04:09:31.705Z,5.72
2022-08-26T04:12:03.537Z,5.03
2022-08-26T04:14:31.224Z,7.65
2022-08-26T04:16:58.604Z,5.95
2022-08-26T04:19:25.292Z,6.72
2022-08-26T04:21:53.035Z,9.40
2022-08-26T04:24:21.051Z,7.78
2022-08-26T04:26:48.100Z,5.93
2022-08-26T04:29:25.620Z,6.55
2022-08-26T04:31:55.438Z,6.82
2022-08-26T04:34:28.428Z,4.95
2022-08-26T04:36:56.146Z,4.57
2022-08-26T04:39:22.544Z,3.67
2022-08-26T04:41:50.107Z,3.58
2022-08-26T04:44:17.542Z,5.00
2022-08-26T04:46:44.197Z,7.57
2022-08-26T04:49:11.052Z,6.70
2022-08-26T04:51:37.485Z,12.38
2022-08-26T04:54:06.889Z,15.80
2022-08-26T04:56:34.938Z,9.20
2022-08-26T04:59:03.022Z,9.93
2022-08-26T05:01:31.524Z,11.63
2022-08-26T05:03:58.432Z,20.42
2022-08-26T05:06:26.016Z,33.67
2022-08-26T05:08:53.011Z,24.88
2022-08-26T05:11:20.276Z,26.42
2022-08-26T05:13:49.112Z,24.95
2022-08-26T05:16:16.456Z,24.17
2022-08-26T05:18:43.547Z,18.73
2022-08-26T05:21:18.719Z,21.55
2022-08-26T05:23:45.093Z,18.38
2022-08-26T05:26:11.422Z,20.05
2022-08-26T05:28:37.979Z,25.65
2022-08-26T05:31:20.440Z,12.85
2022-08-26T05:33:47.365Z,21.08
2022-08-26T05:36:15.630Z,21.30
2022-08-26T05:38:42.156Z,13.15
2022-08-26T05:41:14.572Z,11.25
2022-08-26T05:43:43.069Z,13.05
2022-08-26T05:46:09.572Z,15.02
2022-08-26T05:48:36.497Z,15.35
2022-08-26T05:51:04.932Z,13.98
2022-08-26T05:53:31.804Z,11.85
2022-08-26T05:55:58.584Z,10.38
2022-08-26T05:58:26.853Z,11.63
2022-08-26T06:01:06.870Z,9.05
2022-08-26T06:03:34.701Z,7.72
2022-08-26T06:06:05.438Z,25.77
2022-08-26T06:08:33.631Z,15.07
2022-08-26T06:11:01.612Z,9.90
2022-08-26T06:13:30.307Z,6.70
2022-08-26T06:15:59.332Z,10.25
2022-08-26T06:18:27.897Z,11.57
2022-08-26T06:20:57.614Z,19.85
2022-08-26T06:23:43.873Z,14.80
2022-08-26T06:26:11.027Z,21.35
2022-08-26T06:28:37.506Z,15.98
2022-08-26T06:31:04.064Z,12.25
2022-08-26T06:33:32.415Z,16.77
2022-08-26T06:35:58.967Z,12.73
2022-08-26T06:38:25.410Z,10.45
2022-08-26T06:40:54.712Z,19.73
2022-08-26T06:43:22.642Z,14.43
2022-08-26T06:45:50.264Z,10.77
2022-08-26T06:48:18.105Z,12.93
2022-08-26T06:50:45.267Z,13.75
2022-08-26T06:53:13.533Z,11.45
2022-08-26T06:55:41.504Z,19.40
2022-08-26T06:58:09.463Z,18.88
2022-08-26T07:00:36.692Z,10.07
2022-08-26T07:03:06.313Z,8.27
2022-08-26T07:05:35.020Z,5.82
2022-08-26T07:08:01.802Z,10.98
2022-08-26T07:10:28.136Z,13.30
2022-08-26T07:12:54.481Z,16.02
2022-08-26T07:15:23.869Z,13.93
2022-08-26T07:17:53.587Z,19.27
2022-08-26T07:20:20.900Z,11.82
2022-08-26T07:22:47.250Z,11.68
2022-08-26T07:25:13.819Z,9.77
2022-08-26T07:27:40.175Z,8.77
2022-08-26T07:30:07.203Z,16.17
2022-08-26T07:32:33.648Z,18.08
2022-08-26T07:35:00.285Z,9.40
2022-08-26T07:37:26.737Z,6.55
2022-08-26T07:39:57.450Z,6.75
2022-08-26T07:42:24.262Z,4.50
2022-08-26T07:44:50.810Z,6.30
2022-08-26T07:47:25.052Z,9.77
2022-08-26T07:49:53.360Z,9.13
2022-08-26T07:52:25.350Z,3.75
2022-08-26T07:54:52.847Z,5.82
2022-08-26T07:57:19.304Z,7.05
2022-08-26T07:59:45.626Z,6.18
2022-08-26T08:02:12.293Z,4.43
2022-08-26T08:04:38.706Z,8.60
2022-08-26T08:07:05.033Z,11.80
2022-08-26T08:09:34.099Z,8.82
2022-08-26T08:12:00.731Z,10.90
2022-08-26T08:14:27.349Z,7.38
2022-08-26T08:16:54.769Z,5.47
2022-08-26T08:19:21.439Z,8.20
2022-08-26T08:21:48.320Z,5.95
2022-08-26T08:24:15.438Z,7.38
2022-08-26T08:26:41.928Z,10.63
2022-08-26T08:29:08.876Z,12.18
2022-08-26T08:34:21.899Z,13.52
2022-08-26T08:36:48.340Z,9.98
2022-08-26T08:39:14.794Z,9.95
2022-08-26T08:41:44.936Z,13.60
2022-08-26T08:44:20.005Z,8.05
2022-08-26T08:46:58.326Z,6.57
2022-08-26T08:49:25.872Z,5.78
2022-08-26T08:51:56.739Z,4.75
2022-08-26T08:54:23.288Z,6.18
2022-08-26T08:56:52.968Z,6.80
2022-08-26T08:59:20.900Z,9.90
2022-08-26T09:01:54.232Z,8.05
2022-08-26T09:04:30.550Z,10.02
2022-08-26T09:06:59.552Z,6.95
2022-08-26T09:09:31.919Z,12.93
2022-08-26T09:11:58.775Z,10.55
2022-08-26T09:14:25.718Z,13.50
2022-08-26T09:17:01.141Z,14.23
2022-08-26T09:19:35.189Z,10.18
2022-08-26T09:22:03.680Z,8.85
2022-08-26T09:24:37.329Z,7.23
2022-08-26T09:27:08.141Z,15.55
2022-08-26T09:29:42.232Z,13.43
2022-08-26T09:32:21.243Z,18.92
2022-08-26T09:34:53.746Z,15.02
2022-08-26T09:37:33.904Z,15.05
2022-08-26T09:40:12.738Z,18.17
2022-08-26T09:42:39.255Z,18.80
2022-08-26T09:45:10.341Z,14.65
2022-08-26T09:47:51.992Z,10.40
2022-08-26T09:50:30.744Z,13.13
2022-08-26T09:53:09.724Z,8.95
2022-08-26T09:55:41.876Z,14.57
2022-08-26T09:58:13.801Z,15.75
2022-08-26T10:01:01.403Z,13.60
2022-08-26T10:03:31.590Z,10.20
2022-08-26T10:05:58.462Z,10.95
2022-08-26T10:08:27.774Z,11.30
2022-08-26T10:10:56.317Z,9.23
2022-08-26T10:13:23.360Z,16.67
2022-08-26T10:16:06.056Z,12.27
2022-08-26T10:18:39.896Z,14.27
2022-08-26T10:21:17.906Z,11.32
2022-08-26T10:23:49.484Z,10.20
2022-08-26T10:28:54.996Z,10.50
2022-08-26T10:31:38.173Z,9.55
2022-08-26T10:34:05.313Z,9.32
2022-08-26T10:39:49.166Z,5.80
2022-08-26T10:42:18.181Z,5.93
2022-08-26T10:44:45.718Z,4.55
2022-08-26T10:47:20.554Z,8.98
2022-08-26T10:49:49.123Z,7.20
2022-08-26T10:52:33.178Z,9.98
2022-08-26T10:55:05.877Z,7.53
2022-08-26T10:57:54.991Z,9.23
2022-08-26T11:00:44.042Z,9.75
2022-08-26T11:03:22.657Z,5.80
2022-08-26T11:06:09.067Z,5.25
2022-08-26T11:08:45.233Z,9.93
2022-08-26T11:11:11.558Z,8.60
2022-08-26T11:13:56.802Z,5.40
2022-08-26T11:16:33.762Z,5.72
2022-08-26T11:19:01.094Z,9.73
2022-08-26T11:21:47.617Z,4.45
2022-08-26T11:24:34.339Z,7.85
2022-08-26T11:27:02.371Z,7.22
2022-08-26T11:29:49.074Z,7.88
2022-08-26T11:32:44.996Z,10.00
2022-08-26T11:35:17.955Z,7.88
2022-08-26T11:37:50.051Z,9.00
2022-08-26T11:40:21.155Z,9.27
2022-08-26T11:43:00.504Z,9.75
2022-08-26T11:45:33.976Z,9.18
2022-08-26T11:48:19.352Z,10.63
2022-08-26T11:50:57.026Z,11.25
2022-08-26T11:53:25.612Z,9.40
2022-08-26T11:55:55.420Z,7.93
2022-08-26T11:58:23.110Z,8.85
2022-08-26T12:00:54.348Z,8.73
2022-08-26T12:03:23.967Z,9.57
2022-08-26T12:05:52.041Z,8.75
2022-08-26T12:08:21.389Z,7.63
2022-08-26T12:10:49.120Z,6.47
2022-08-26T12:13:24.059Z,5.63
2022-08-26T12:15:55.918Z,8.93
2022-08-26T12:18:29.283Z,7.00
2022-08-26T12:20:57.952Z,7.78
2022-08-26T12:23:26.055Z,10.25
2022-08-26T12:25:54.027Z,8.45
2022-08-26T12:28:21.658Z,8.38
2022-08-26T12:30:59.821Z,9.15
2022-08-26T12:33:27.942Z,10.93
2022-08-26T12:35:56.322Z,10.95
2022-08-26T12:38:23.878Z,8.45
2022-08-26T12:40:50.465Z,15.35
2022-08-26T12:43:36.106Z,13.10
2022-08-26T12:46:04.584Z,7.75
2022-08-26T12:48:35.954Z,9.07
2022-08-26T12:51:03.092Z,10.48
2022-08-26T12:53:31.015Z,12.85
2022-08-26T12:56:03.501Z,8.52
2022-08-26T12:58:29.955Z,12.20
2022-08-26T13:00:56.417Z,8.82
2022-08-26T13:03:35.248Z,8.55
2022-08-26T13:06:15.567Z,9.68
2022-08-26T13:08:43.746Z,9.50
2022-08-26T13:11:18.483Z,9.85
2022-08-26T13:13:45.692Z,6.65
2022-08-26T13:16:13.880Z,5.28
2022-08-26T13:18:40.322Z,4.97
2022-08-26T13:21:20.605Z,5.00
2022-08-26T13:23:47.798Z,4.20
2022-08-26T13:26:14.290Z,6.93
2022-08-26T13:28:40.657Z,9.40
2022-08-26T13:31:07.132Z,10.90
2022-08-26T13:33:33.477Z,6.95
2022-08-26T13:36:00.353Z,8.50
2022-08-26T13:38:33.444Z,7.35
2022-08-26T13:41:00.421Z,7.10
2022-08-26T13:43:27.734Z,6.15
2022-08-26T13:45:54.055Z,4.10
2022-08-26T13:48:23.361Z,5.38
2022-08-26T13:50:50.140Z,4.22
2022-08-26T13:53:17.140Z,8.07
2022-08-26T13:55:43.501Z,6.57
2022-08-26T13:58:10.778Z,4.65
2022-08-26T14:00:38.025Z,5.30
2022-08-26T14:03:04.887Z,3.08
2022-08-26T14:05:31.318Z,4.40
2022-08-26T14:07:57.647Z,8.00
2022-08-26T14:10:24.566Z,5.50
2022-08-26T14:12:51.390Z,6.78
2022-08-26T14:15:18.566Z,4.30
2022-08-26T14:17:47.010Z,4.57
2022-08-26T14:20:15.755Z,3.90
2022-08-26T14:23:03.434Z,5.50
2022-08-26T14:25:30.813Z,4.93
2022-08-26T14:27:57.124Z,5.05
2022-08-26T14:30:23.444Z,4.43
2022-08-26T14:32:52.800Z,6.47
2022-08-26T14:35:20.584Z,4.35
2022-08-26T14:37:46.976Z,6.43
2022-08-26T14:40:14.152Z,4.13
2022-08-26T14:42:41.446Z,7.20
2022-08-26T14:45:09.544Z,4.50
2022-08-26T14:47:35.886Z,3.70
2022-08-26T14:50:02.229Z,5.90
2022-08-26T14:52:29.645Z,5.93
2022-08-26T14:54:55.972Z,5.95
2022-08-26T14:57:22.325Z,4.65
2022-08-26T14:59:50.476Z,5.00
2022-08-26T15:02:32.549Z,3.60
2022-08-26T15:04:59.530Z,5.30
2022-08-26T15:07:26.108Z,4.47
2022-08-26T15:09:53.040Z,6.40
2022-08-26T15:12:19.369Z,6.13
2022-08-26T15:14:45.735Z,8.10
2022-08-26T15:17:12.626Z,5.63
2022-08-26T15:19:39.104Z,5.95
2022-08-26T15:22:05.680Z,4.65
2022-08-26T15:24:32.009Z,4.07
2022-08-26T15:26:58.488Z,4.85
2022-08-26T15:29:24.936Z,6.20
2022-08-26T15:31:51.356Z,4.22
2022-08-26T15:34:17.672Z,3.35
2022-08-26T15:36:45.831Z,5.57
2022-08-26T15:39:12.919Z,4.22
2022-08-26T15:41:39.504Z,4.07
2022-08-26T15:44:06.596Z,3.30
2022-08-26T15:46:33.805Z,3.05
2022-08-26T15:49:01.453Z,3.15
2022-08-26T15:51:30.009Z,4.28
2022-08-26T15:53:56.607Z,6.45
2022-08-26T15:56:26.817Z,3.95
2022-08-26T15:58:54.085Z,2.40
2022-08-26T16:01:27.326Z,2.33
2022-08-26T16:03:54.678Z,3.45
2022-08-26T16:06:22.331Z,3.70
2022-08-26T16:08:49.953Z,2.97
2022-08-26T16:11:18.722Z,3.15
2022-08-26T16:13:45.844Z,3.10
2022-08-26T16:16:12.267Z,3.38
2022-08-26T16:18:38.649Z,2.78
2022-08-26T16:21:12.748Z,2.40
2022-08-26T16:23:40.191Z,4.45
2022-08-26T16:26:10.660Z,3.58
2022-08-26T16:28:37.672Z,4.05
2022-08-26T16:31:04.871Z,2.63
2022-08-26T16:33:31.288Z,3.70
2022-08-26T16:35:58.600Z,4.30
2022-08-26T16:38:25.054Z,4.75
2022-08-26T16:40:51.534Z,5.45
2022-08-26T16:43:17.857Z,5.10
2022-08-26T16:45:44.355Z,3.80
2022-08-26T16:48:10.866Z,5.47
2022-08-26T16:50:37.814Z,4.57
2022-08-26T16:53:04.632Z,2.70
2022-08-26T16:55:31.694Z,4.25
2022-08-26T16:57:58.204Z,3.63
2022-08-26T17:00:28.989Z,2.60
2022-08-26T17:02:56.151Z,3.43
2022-08-26T17:05:24.957Z,2.40
2022-08-26T17:07:52.965Z,3.42
2022-08-26T17:10:19.903Z,2.10
2022-08-26T17:12:46.294Z,4.35
2022-08-26T17:15:13.344Z,2.63
2022-08-26T17:17:40.537Z,2.53
2022-08-26T17:20:11.069Z,1.85
2022-08-26T17:22:39.505Z,1.73
2022-08-26T17:25:09.596Z,2.45
2022-08-26T17:27:36.498Z,2.75
2022-08-26T17:30:04.115Z,1.90
2022-08-26T17:32:30.703Z,1.98
2022-08-26T17:34:57.848Z,1.40
2022-08-26T17:37:24.293Z,1.30
2022-08-26T17:39:50.696Z,2.00
2022-08-26T17:42:17.071Z,1.45
2022-08-26T17:44:44.685Z,1.80
2022-08-26T17:47:11.011Z,2.50
2022-08-26T17:49:37.521Z,1.77
2022-08-26T17:52:06.579Z,1.60
2022-08-26T17:54:34.751Z,3.92
2022-08-26T17:57:01.068Z,2.83
2022-08-26T17:59:30.559Z,1.77
2022-08-26T18:01:58.856Z,2.00
2022-08-26T18:04:25.350Z,1.92
2022-08-26T18:06:51.761Z,3.58
2022-08-26T18:09:18.084Z,2.50
2022-08-26T18:11:44.533Z,3.53
2022-08-26T18:14:10.961Z,2.55
2022-08-26T18:16:41.600Z,2.17
2022-08-26T18:19:08.309Z,3.22
2022-08-26T18:21:36.207Z,2.20
2022-08-26T18:24:02.889Z,2.22
2022-08-26T18:26:33.655Z,2.55
2022-08-26T18:29:00.425Z,2.97
2022-08-26T18:31:27.167Z,4.00
2022-08-26T18:33:53.564Z,2.35
2022-08-26T18:36:24.126Z,1.90
2022-08-26T18:38:51.405Z,1.60
2022-08-26T18:41:20.568Z,1.40
2022-08-26T18:43:47.568Z,1.77
2022-08-26T18:46:14.100Z,2.00
2022-08-26T18:48:40.778Z,1.38
2022-08-26T18:51:07.502Z,2.03
2022-08-26T18:53:38.920Z,2.47
2022-08-26T18:56:06.902Z,2.05
2022-08-26T18:58:33.335Z,1.40
2022-08-26T19:00:59.775Z,1.38
2022-08-26T19:03:28.572Z,2.10
2022-08-26T19:05:55.238Z,2.38
2022-08-26T19:08:21.926Z,4.65
2022-08-26T19:10:48.308Z,2.95
2022-08-26T19:13:15.820Z,3.83
2022-08-26T19:15:43.131Z,1.85
2022-08-26T19:18:10.596Z,2.22
2022-08-26T19:20:44.743Z,1.98
2022-08-26T19:23:28.545Z,2.30
2022-08-26T19:25:57.688Z,1.52
2022-08-26T19:28:24.031Z,2.05
2022-08-26T19:30:53.111Z,2.03
2022-08-26T19:33:19.893Z,1.27
2022-08-26T19:35:46.286Z,1.55
2022-08-26T19:38:12.902Z,2.17
2022-08-26T19:40:39.397Z,1.30
2022-08-26T19:43:06.190Z,1.50
2022-08-26T19:45:33.513Z,1.40
2022-08-26T19:48:00.127Z,1.00
2022-08-26T19:50:27.722Z,1.20
2022-08-26T19:52:54.144Z,2.17
2022-08-26T19:55:22.443Z,1.08
2022-08-26T19:57:50.164Z,1.30
2022-08-26T20:00:17.954Z,1.10
2022-08-26T20:02:44.462Z,1.45
2022-08-26T20:05:11.779Z,1.38
2022-08-26T20:07:38.164Z,1.27
2022-08-26T20:10:05.705Z,2.35
2022-08-26T20:12:33.639Z,1.58
2022-08-26T20:15:00.474Z,1.40
2022-08-26T20:17:26.908Z,1.67
2022-08-26T20:20:14.755Z,1.30
2022-08-26T20:22:58.826Z,1.90
2022-08-26T20:25:25.219Z,1.67
2022-08-26T20:27:51.584Z,1.40
2022-08-26T20:30:18.074Z,2.53
2022-08-26T20:32:44.470Z,1.50
2022-08-26T20:35:13.158Z,1.75
2022-08-26T20:37:39.640Z,2.03
2022-08-26T20:40:08.001Z,3.58
2022-08-26T20:42:34.559Z,3.42
2022-08-26T20:45:01.153Z,2.35
2022-08-26T20:47:27.586Z,2.85
2022-08-26T20:49:55.578Z,3.00
2022-08-26T20:52:22.010Z,2.90
2022-08-26T20:54:48.326Z,1.60
2022-08-26T20:57:14.696Z,1.63
2022-08-26T20:59:41.165Z,4.30
2022-08-26T21:02:07.740Z,2.03
2022-08-26T21:04:34.490Z,2.35
2022-08-26T21:07:00.863Z,2.40
2022-08-26T21:09:27.359Z,2.70
2022-08-26T21:11:55.801Z,2.83
2022-08-26T21:14:23.223Z,2.20
2022-08-26T21:16:52.380Z,2.30
2022-08-26T21:19:18.894Z,3.33
2022-08-26T21:21:46.139Z,2.22
2022-08-26T21:24:13.305Z,3.15
2022-08-26T21:26:39.986Z,2.85
2022-08-26T21:29:09.641Z,2.20
2022-08-26T21:31:36.809Z,3.63
2022-08-26T21:34:03.550Z,3.63
2022-08-26T21:36:29.937Z,2.13
2022-08-26T21:38:57.110Z,3.78
2022-08-26T21:41:23.920Z,2.20
2022-08-26T21:43:51.292Z,2.10
2022-08-26T21:46:19.188Z,2.80
2022-08-26T21:48:50.758Z,2.80
2022-08-26T21:53:44.077Z,2.75
2022-08-26T21:56:12.039Z,1.75
2022-08-26T21:58:38.532Z,3.58
2022-08-26T22:01:08.067Z,2.35
2022-08-26T22:03:35.211Z,2.10
2022-08-26T22:06:13.714Z,1.65
2022-08-26T22:08:40.074Z,2.13
2022-08-26T22:11:06.570Z,1.25
2022-08-26T22:13:34.719Z,1.40
2022-08-26T22:16:01.060Z,1.70
2022-08-26T22:18:28.766Z,2.25
2022-08-26T22:20:58.239Z,2.38
2022-08-26T22:23:24.574Z,2.17
2022-08-26T22:25:51.042Z,2.40
2022-08-26T22:28:17.748Z,1.45
2022-08-26T22:30:44.850Z,2.58
2022-08-26T22:33:11.193Z,2.15
2022-08-26T22:35:41.662Z,1.30
2022-08-26T22:38:08.541Z,1.52
2022-08-26T22:40:35.721Z,1.00
2022-08-26T22:43:02.574Z,0.95
2022-08-26T22:45:31.247Z,3.00
2022-08-26T22:47:58.501Z,2.58
2022-08-26T22:50:25.460Z,1.70
2022-08-26T22:52:51.821Z,1.50
2022-08-26T22:55:18.142Z,2.42
2022-08-26T22:57:44.592Z,1.10
2022-08-26T23:00:13.506Z,1.33
2022-08-26T23:02:40.398Z,1.60
2022-08-26T23:05:07.411Z,0.88
2022-08-26T23:07:34.215Z,0.90
2022-08-26T23:10:00.671Z,1.00
2022-08-26T23:12:27.725Z,0.80
2022-08-26T23:14:54.044Z,1.30
2022-08-26T23:17:21.326Z,0.90
2022-08-26T23:19:47.672Z,0.60
2022-08-26T23:22:14.144Z,1.63
2022-08-26T23:24:40.488Z,1.50
2022-08-26T23:27:06.975Z,1.05
2022-08-26T23:29:33.360Z,1.00
2022-08-26T23:32:00.277Z,1.17
2022-08-26T23:34:45.322Z,1.98
2022-08-26T23:37:13.702Z,1.50
2022-08-26T23:39:40.020Z,1.35
2022-08-26T23:42:08.201Z,1.33
2022-08-26T23:44:34.952Z,1.10
2022-08-26T23:47:01.573Z,1.48
2022-08-26T23:49:28.285Z,1.95
2022-08-26T23:52:13.478Z,3.20
2022-08-26T23:54:40.312Z,2.13
2022-08-26T23:57:07.158Z,1.23
2022-08-26T23:59:33.960Z,1.73
